Time;durP1;ratioP1;P1;durP2;ratioP2;P2;SDS_P1;SDS_P2;PMS_P1;PMS_P2;Temp;Humidity;BMP_temperature;BMP_pressure;BME280_temperature;BME280_humidity;BME280_pressure;Samples;Min_cycle;Max_cycle;Signal;HPM_P1;HPM_P2
2023/03/11 00:01:50;;;;;;;;;;;;;;;3.42;85.25;98039.63;105176;1290;71247;-75
2023/03/11 00:04:36;;;;;;;;;;;;;;;3.39;85.30;98037.84;105086;1287;61170;-75
2023/03/11 00:07:22;;;;;;;;;;;;;;;3.39;85.43;98037.50;105312;1288;61283;-75
2023/03/11 00:10:19;;;;;;;;;;;;;;;3.38;85.41;98034.63;105202;1288;73868;-75
2023/03/11 00:13:07;;;;;;;;;;;;;;;3.37;85.40;98030.06;105187;1288;67518;-75
2023/03/11 00:15:58;;;;;;;;;;;;;;;3.34;85.37;98024.53;105106;1288;74081;-75
2023/03/11 00:18:44;;;;;;;;;;;;;;;3.29;85.24;98018.02;105147;1288;61211;-75
2023/03/11 00:21:30;;;;;;;;;;;;;;;3.25;85.26;98015.59;105205;1290;61325;-75
2023/03/11 00:24:16;;;;;;;;;;;;;;;3.23;85.35;98016.32;105160;1288;73222;-75
2023/03/11 00:27:02;;;;;;;;;;;;;;;3.21;85.31;98016.02;105150;1288;71345;-75
2023/03/11 00:29:48;;;;;;;;;;;;;;;3.21;85.37;98015.88;105196;1288;71178;-75
2023/03/11 00:32:35;;;;;;;;;;;;;;;3.20;85.39;98014.20;105178;1287;61021;-75
2023/03/11 00:35:23;;;;;;;;;;;;;;;3.19;85.38;98013.55;104937;1287;61457;-75
2023/03/11 00:38:11;;;;;;;;;;;;;;;3.17;85.32;98016.34;105172;1289;73376;-75
2023/03/11 00:41:00;;;;;;;;;;;;;;;3.14;85.32;98017.76;105113;1288;68234;-75
2023/03/11 00:43:46;;;;;;;;;;;;;;;3.12;85.37;98015.95;105110;1290;74066;-74
2023/03/11 00:46:32;;;;;;;;;;;;;;;3.11;85.32;98013.97;105173;1291;59223;-75
2023/03/11 00:49:19;;;;;;;;;;;;;;;3.09;85.32;98013.34;105167;1289;61279;-74
2023/03/11 00:52:05;;;;;;;;;;;;;;;3.06;85.24;98013.08;105157;1288;73087;-74
2023/03/11 00:54:51;;;;;;;;;;;;;;;3.04;85.31;98009.90;105044;1290;68482;-74
2023/03/11 00:57:38;;;;;;;;;;;;;;;3.02;85.27;98009.44;105118;1291;72457;-75
2023/03/11 01:00:25;;;;;;;;;;;;;;;2.99;85.23;98010.89;105039;1288;60756;-75
2023/03/11 01:03:12;;;;;;;;;;;;;;;2.96;85.24;98008.92;105190;1291;59508;-75
2023/03/11 01:05:58;;;;;;;;;;;;;;;2.94;85.29;98011.89;105035;1289;73212;-74
2023/03/11 01:08:44;;;;;;;;;;;;;;;2.94;85.37;98012.74;105169;1290;67306;-74
2023/03/11 01:11:30;;;;;;;;;;;;;;;2.96;85.47;98013.02;105003;1293;72546;-74
2023/03/11 01:14:17;;;;;;;;;;;;;;;2.96;85.32;98007.77;105024;1287;61150;-75
2023/03/11 01:17:03;;;;;;;;;;;;;;;2.93;85.33;98004.94;104983;1290;61286;-75
2023/03/11 01:19:49;;;;;;;;;;;;;;;2.91;85.29;98001.23;105181;1291;74620;-75
2023/03/11 01:22:35;;;;;;;;;;;;;;;2.90;85.34;98001.45;105152;1291;68994;-75
2023/03/11 01:25:22;;;;;;;;;;;;;;;2.88;85.31;98003.02;105200;1291;72084;-75
2023/03/11 01:28:08;;;;;;;;;;;;;;;2.85;85.23;98003.79;104959;1293;61242;-75
2023/03/11 01:30:54;;;;;;;;;;;;;;;2.82;85.26;98001.31;105057;1289;59362;-74
2023/03/11 01:33:40;;;;;;;;;;;;;;;2.83;85.27;98009.80;105064;1294;74553;-74
2023/03/11 01:36:26;;;;;;;;;;;;;;;2.80;85.20;98005.11;105008;1291;69303;-74
2023/03/11 01:39:12;;;;;;;;;;;;;;;2.77;85.15;98010.64;105025;1291;73812;-74
2023/03/11 01:41:59;;;;;;;;;;;;;;;2.73;85.13;98012.44;105118;1291;61108;-74
2023/03/11 01:44:45;;;;;;;;;;;;;;;2.70;85.11;98012.88;105140;1290;60619;-74
2023/03/11 01:47:35;;;;;;;;;;;;;;;2.67;85.13;98011.73;105025;1292;76466;-75
2023/03/11 01:50:22;;;;;;;;;;;;;;;2.64;85.07;98011.48;104981;1289;70006;-74
2023/03/11 01:53:08;;;;;;;;;;;;;;;2.61;85.07;98015.30;105137;1293;71238;-74
2023/03/11 01:55:54;;;;;;;;;;;;;;;2.56;85.00;98018.36;105150;1291;61258;-74
2023/03/11 01:58:43;;;;;;;;;;;;;;;2.50;84.90;98020.90;105017;1295;61674;-74
2023/03/11 02:01:29;;;;;;;;;;;;;;;2.43;84.98;98021.21;105148;1289;76818;-74
2023/03/11 02:04:16;;;;;;;;;;;;;;;2.41;84.97;98018.07;105134;1291;71388;-74
2023/03/11 02:07:02;;;;;;;;;;;;;;;2.38;85.03;98019.83;105179;1289;70219;-74
2023/03/11 02:09:49;;;;;;;;;;;;;;;2.35;85.08;98020.41;105041;1288;61257;-74
2023/03/11 02:12:36;;;;;;;;;;;;;;;2.31;85.02;98023.05;105240;1288;61260;-74
2023/03/11 02:15:23;;;;;;;;;;;;;;;2.29;85.01;98022.93;106148;1289;73184;-73
2023/03/11 02:18:11;;;;;;;;;;;;;;;2.23;84.91;98023.09;106322;1287;67195;-73
2023/03/11 02:21:16;;;;;;;;;;;;;;;2.18;84.96;98027.29;105464;1289;71434;-73
2023/03/11 02:24:02;;;;;;;;;;;;;;;2.15;84.93;98030.75;105227;1293;59620;-73
2023/03/11 02:26:59;;;;;;;;;;;;;;;2.13;85.01;98030.47;105198;1287;63596;-73
2023/03/11 02:29:48;;;;;;;;;;;;;;;2.10;84.92;98033.92;105170;1287;73250;-73
2023/03/11 02:32:34;;;;;;;;;;;;;;;2.08;84.94;98034.50;105073;1293;67261;-73
2023/03/11 02:35:21;;;;;;;;;;;;;;;2.05;84.97;98038.48;104983;1288;71220;-73
2023/03/11 02:38:07;;;;;;;;;;;;;;;2.02;84.96;98038.75;105054;1288;61352;-73
2023/03/11 02:41:00;;;;;;;;;;;;;;;2.00;85.05;98042.86;105154;1287;61744;-73
2023/03/11 02:43:47;;;;;;;;;;;;;;;2.01;85.14;98043.52;105149;1288;73985;-73
2023/03/11 02:46:35;;;;;;;;;;;;;;;2.02;85.15;98050.96;105049;1294;66860;-73
2023/03/11 02:49:21;;;;;;;;;;;;;;;1.99;85.02;98050.84;105041;1288;72287;-72
2023/03/11 02:52:07;;;;;;;;;;;;;;;1.98;85.06;98050.54;105013;1294;61139;-72
2023/03/11 02:54:54;;;;;;;;;;;;;;;1.95;85.01;98052.83;105201;1287;59803;-74
2023/03/11 02:57:40;;;;;;;;;;;;;;;1.93;84.94;98056.77;105044;1292;73292;-74
2023/03/11 03:00:27;;;;;;;;;;;;;;;1.89;84.99;98058.73;105283;1289;67790;-74
2023/03/11 03:03:13;;;;;;;;;;;;;;;1.86;84.99;98064.23;105108;1288;71302;-74
2023/03/11 03:05:59;;;;;;;;;;;;;;;1.84;84.96;98066.98;105137;1292;61294;-74
2023/03/11 03:08:45;;;;;;;;;;;;;;;1.81;85.02;98067.40;105109;1292;61103;-74
2023/03/11 03:11:31;;;;;;;;;;;;;;;1.78;85.07;98073.06;105276;1289;72184;-74
2023/03/11 03:14:17;;;;;;;;;;;;;;;1.78;85.12;98076.80;105330;1289;67193;-74
2023/03/11 03:17:03;;;;;;;;;;;;;;;1.78;85.09;98080.55;105109;1289;72991;-74
2023/03/11 03:19:49;;;;;;;;;;;;;;;1.76;85.12;98084.48;105291;1289;60119;-75
2023/03/11 03:22:36;;;;;;;;;;;;;;;1.76;85.15;98089.60;105119;1289;61090;-75
2023/03/11 03:25:22;;;;;;;;;;;;;;;1.75;85.15;98094.20;105160;1292;73287;-74
2023/03/11 03:28:09;;;;;;;;;;;;;;;1.75;85.18;98095.55;105134;1289;68769;-74
2023/03/11 03:30:55;;;;;;;;;;;;;;;1.76;85.31;98097.40;105119;1287;73127;-75
2023/03/11 03:33:41;;;;;;;;;;;;;;;1.76;85.25;98099.45;105310;1291;61119;-75
2023/03/11 03:36:28;;;;;;;;;;;;;;;1.73;85.16;98103.91;105117;1291;61276;-75
2023/03/11 03:39:14;;;;;;;;;;;;;;;1.71;85.24;98108.73;105225;1289;75932;-75
2023/03/11 03:42:00;;;;;;;;;;;;;;;1.67;85.20;98114.05;105328;1291;67266;-75
2023/03/11 03:44:47;;;;;;;;;;;;;;;1.63;85.16;98117.20;105298;1291;70326;-75
2023/03/11 03:47:33;;;;;;;;;;;;;;;1.61;85.11;98129.80;105115;1288;62007;-73
2023/03/11 03:50:20;;;;;;;;;;;;;;;1.59;85.22;98133.39;105109;1290;61057;-73
2023/03/11 03:53:06;;;;;;;;;;;;;;;1.58;85.17;98141.73;105116;1286;74066;-72
2023/03/11 03:55:53;;;;;;;;;;;;;;;1.59;85.24;98145.80;105041;1291;68445;-72
2023/03/11 03:58:39;;;;;;;;;;;;;;;1.57;85.13;98155.02;105210;1288;71432;-72
2023/03/11 04:01:26;;;;;;;;;;;;;;;1.55;85.21;98164.07;105129;1288;61277;-74
2023/03/11 04:04:12;;;;;;;;;;;;;;;1.54;85.28;98170.38;105192;1288;61276;-74
2023/03/11 04:06:58;;;;;;;;;;;;;;;1.52;85.24;98180.44;105153;1288;74887;-74
2023/03/11 04:09:44;;;;;;;;;;;;;;;1.51;85.21;98183.84;105217;1288;67927;-74
2023/03/11 04:12:30;;;;;;;;;;;;;;;1.49;85.21;98190.83;105207;1288;73956;-74
2023/03/11 04:15:16;;;;;;;;;;;;;;;1.46;85.13;98197.01;105040;1288;61189;-74
2023/03/11 04:18:03;;;;;;;;;;;;;;;1.40;85.11;98200.52;105161;1288;61188;-74
2023/03/11 04:20:49;;;;;;;;;;;;;;;1.38;85.21;98204.29;105021;1289;73144;-74
2023/03/11 04:23:35;;;;;;;;;;;;;;;1.36;85.28;98212.80;105173;1288;68569;-74
2023/03/11 04:26:21;;;;;;;;;;;;;;;1.34;85.22;98216.58;105190;1287;72484;-74
2023/03/11 04:29:07;;;;;;;;;;;;;;;1.32;85.29;98225.08;105148;1290;61194;-74
2023/03/11 04:31:53;;;;;;;;;;;;;;;1.31;85.23;98230.36;105165;1288;61397;-74
2023/03/11 04:34:40;;;;;;;;;;;;;;;1.32;85.36;98238.84;105180;1287;75972;-74
2023/03/11 04:37:27;;;;;;;;;;;;;;;1.34;85.42;98245.09;105179;1288;67360;-75
2023/03/11 04:40:14;;;;;;;;;;;;;;;1.32;85.29;98246.46;105007;1288;71128;-75
2023/03/11 04:43:00;;;;;;;;;;;;;;;1.31;85.31;98252.94;105049;1287;62126;-74
2023/03/11 04:45:49;;;;;;;;;;;;;;;1.31;85.35;98259.91;105250;1289;61229;-75
2023/03/11 04:48:35;;;;;;;;;;;;;;;1.30;85.29;98268.91;105237;1289;73210;-75
2023/03/11 04:51:21;;;;;;;;;;;;;;;1.28;85.27;98279.13;105137;1288;68941;-74
2023/03/11 04:54:07;;;;;;;;;;;;;;;1.26;85.28;98285.09;105109;1287;75471;-74
2023/03/11 04:56:53;;;;;;;;;;;;;;;1.25;85.25;98292.57;105090;1290;61054;-74
2023/03/11 04:59:39;;;;;;;;;;;;;;;1.25;85.24;98304.63;105112;1290;61141;-75
2023/03/11 05:02:25;;;;;;;;;;;;;;;1.23;85.23;98308.23;105013;1291;74557;-74
2023/03/11 05:05:11;;;;;;;;;;;;;;;1.20;85.34;98315.40;105091;1293;66597;-74
2023/03/11 05:07:58;;;;;;;;;;;;;;;1.16;85.24;98322.75;105102;1287;72160;-75
2023/03/11 05:10:44;;;;;;;;;;;;;;;1.14;85.24;98329.23;105138;1287;61699;-75
2023/03/11 05:13:30;;;;;;;;;;;;;;;1.12;85.32;98337.74;105047;1291;61787;-73
2023/03/11 05:16:16;;;;;;;;;;;;;;;1.13;85.34;98341.46;105057;1290;74537;-74
2023/03/11 05:19:29;;;;;;;;;;;;;;;1.12;85.34;98351.66;104999;1288;70027;-74
2023/03/11 05:22:08;;;;;;;;;;;;;;;1.11;85.37;98361.00;105165;1289;72301;-74
2023/03/11 05:24:54;;;;;;;;;;;;;;;1.10;85.38;98369.16;105037;1288;62633;-73
2023/03/11 05:27:40;;;;;;;;;;;;;;;1.06;85.33;98371.09;105226;1288;61248;-73
2023/03/11 05:30:26;;;;;;;;;;;;;;;1.04;85.33;98377.58;105224;1288;76071;-73
2023/03/11 05:33:13;;;;;;;;;;;;;;;1.04;85.37;98379.09;105225;1288;67953;-73
2023/03/11 05:36:03;;;;;;;;;;;;;;;1.04;85.43;98384.54;105111;1289;72439;-74
2023/03/11 05:38:49;;;;;;;;;;;;;;;1.02;85.38;98391.18;105071;1288;61511;-74
2023/03/11 05:41:35;;;;;;;;;;;;;;;1.02;85.49;98402.55;105187;1289;61084;-74
2023/03/11 05:44:22;;;;;;;;;;;;;;;1.00;85.37;98411.40;105217;1288;73344;-74
2023/03/11 05:47:08;;;;;;;;;;;;;;;0.99;85.42;98418.88;105174;1287;67948;-74
2023/03/11 05:49:54;;;;;;;;;;;;;;;0.98;85.41;98425.50;105208;1289;71259;-73
2023/03/11 05:52:40;;;;;;;;;;;;;;;0.98;85.45;98437.04;105065;1288;59901;-73
2023/03/11 05:55:27;;;;;;;;;;;;;;;0.95;85.68;98442.15;105257;1290;61177;-73
2023/03/11 05:58:13;;;;;;;;;;;;;;;0.92;85.54;98453.91;105214;1287;76537;-73
2023/03/11 06:00:59;;;;;;;;;;;;;;;0.93;85.50;98462.05;105014;1290;67897;-73
2023/03/11 06:03:45;;;;;;;;;;;;;;;0.91;85.53;98474.27;105019;1290;72712;-73
2023/03/11 06:06:32;;;;;;;;;;;;;;;0.89;85.48;98483.45;105069;1289;61263;-73
2023/03/11 06:09:18;;;;;;;;;;;;;;;0.84;85.47;98493.17;105250;1288;61163;-73
2023/03/11 06:12:04;;;;;;;;;;;;;;;0.80;85.44;98506.45;104966;1288;340041;-73
2023/03/11 06:14:52;;;;;;;;;;;;;;;0.78;85.70;98515.97;105190;1291;67339;-74
2023/03/11 06:17:38;;;;;;;;;;;;;;;0.73;85.56;98523.13;106212;1288;71444;-74
2023/03/11 06:20:25;;;;;;;;;;;;;;;0.72;85.65;98537.73;106212;1287;59176;-74
2023/03/11 06:23:11;;;;;;;;;;;;;;;0.67;85.74;98545.75;105971;1289;59803;-74
2023/03/11 06:25:58;;;;;;;;;;;;;;;0.65;85.66;98553.90;106097;1287;76171;-74
2023/03/11 06:28:44;;;;;;;;;;;;;;;0.66;85.63;98564.07;105238;1288;69220;-74
2023/03/11 06:31:30;;;;;;;;;;;;;;;0.66;85.57;98571.19;105094;1288;71353;-74
2023/03/11 06:34:16;;;;;;;;;;;;;;;0.67;85.76;98581.86;105115;1287;59596;-74
2023/03/11 06:37:02;;;;;;;;;;;;;;;0.69;85.71;98588.98;105214;1287;59179;-74
2023/03/11 06:39:51;;;;;;;;;;;;;;;0.72;85.74;98600.13;105126;1288;73374;-74
2023/03/11 06:42:37;;;;;;;;;;;;;;;0.74;85.93;98614.02;105951;1288;68067;-74
2023/03/11 06:45:23;;;;;;;;;;;;;;;0.73;85.83;98616.23;105250;1287;71133;-73
2023/03/11 06:48:10;;;;;;;;;;;;;;;0.76;85.93;98628.75;105210;1288;61215;-73
2023/03/11 06:50:56;;;;;;;;;;;;;;;0.77;85.88;98637.90;105221;1287;61340;-73
2023/03/11 06:53:43;;;;;;;;;;;;;;;0.77;85.81;98646.89;105063;1290;73239;-72
2023/03/11 06:56:30;;;;;;;;;;;;;;;0.78;85.85;98659.77;105123;1288;67215;-73
2023/03/11 06:59:16;;;;;;;;;;;;;;;0.78;85.77;98678.09;105191;1288;75376;-73
2023/03/11 07:02:03;;;;;;;;;;;;;;;0.78;85.87;98689.45;105170;1287;61051;-73
2023/03/11 07:04:49;;;;;;;;;;;;;;;0.77;85.83;98698.11;105203;1288;59523;-73
2023/03/11 07:07:36;;;;;;;;;;;;;;;0.77;85.97;98709.98;105051;1288;77375;-73
2023/03/11 07:10:22;;;;;;;;;;;;;;;0.80;85.95;98717.08;105115;1288;68837;-73
2023/03/11 07:13:09;;;;;;;;;;;;;;;0.80;85.91;98729.29;104993;1288;73115;-73
2023/03/11 07:15:59;;;;;;;;;;;;;;;0.79;85.95;98734.89;105060;1287;59589;-73
2023/03/11 07:18:46;;;;;;;;;;;;;;;0.76;85.79;98746.78;106016;1288;59152;-73
2023/03/11 07:21:32;;;;;;;;;;;;;;;0.76;85.85;98754.24;105972;1288;75076;-73
2023/03/11 07:24:18;;;;;;;;;;;;;;;0.74;85.91;98763.92;106002;1288;68022;-73
2023/03/11 07:27:04;;;;;;;;;;;;;;;0.72;85.86;98772.24;106023;1293;71164;-73
2023/03/11 07:29:50;;;;;;;;;;;;;;;0.72;85.84;98778.69;106135;1290;58655;-74
2023/03/11 07:32:35;;;;;;;;;;;;;;;0.74;85.84;98787.33;106183;1288;59951;-73
2023/03/11 07:35:21;;;;;;;;;;;;;;;0.74;85.87;98794.45;106161;1287;74940;-73
2023/03/11 07:38:07;;;;;;;;;;;;;;;0.76;85.84;98796.83;106175;1288;68692;-73
2023/03/11 07:40:57;;;;;;;;;;;;;;;0.78;85.96;98803.59;106204;1287;70909;-73
2023/03/11 07:43:43;;;;;;;;;;;;;;;0.80;85.95;98810.85;106083;1288;59014;-73
2023/03/11 07:46:29;;;;;;;;;;;;;;;0.81;86.07;98815.27;106217;1288;59002;-75
2023/03/11 07:49:15;;;;;;;;;;;;;;;0.83;85.98;98826.96;106217;1288;73405;-74
2023/03/11 07:52:01;;;;;;;;;;;;;;;0.86;86.09;98833.39;106218;1287;68718;-75
2023/03/11 07:54:47;;;;;;;;;;;;;;;0.88;86.04;98839.48;106238;1287;71392;-74
2023/03/11 07:57:33;;;;;;;;;;;;;;;0.91;85.98;98851.34;106166;1287;59492;-75
2023/03/11 08:00:19;;;;;;;;;;;;;;;0.95;85.90;98858.10;106187;1288;59248;-74
2023/03/11 08:03:05;;;;;;;;;;;;;;;0.96;85.96;98867.60;106200;1288;74173;-74
2023/03/11 08:05:52;;;;;;;;;;;;;;;0.99;86.09;98880.81;106113;1288;67334;-74
2023/03/11 08:08:39;;;;;;;;;;;;;;;1.04;86.08;98888.08;106210;1287;72572;-74
2023/03/11 08:11:25;;;;;;;;;;;;;;;1.08;86.02;98898.39;106113;1288;59220;-74
2023/03/11 08:14:10;;;;;;;;;;;;;;;1.06;86.11;98902.12;106252;1288;59026;-75
2023/03/11 08:16:56;;;;;;;;;;;;;;;1.06;86.09;98913.48;106269;1287;73408;-76
2023/03/11 08:19:42;;;;;;;;;;;;;;;1.07;86.16;98924.17;106227;1287;67518;-74
2023/03/11 08:22:28;;;;;;;;;;;;;;;1.13;86.19;98930.42;106198;1288;72364;-75
2023/03/11 08:25:14;;;;;;;;;;;;;;;1.16;86.14;98943.82;106092;1288;59035;-75
2023/03/11 08:28:00;;;;;;;;;;;;;;;1.19;86.20;98952.45;106103;1288;58950;-74
2023/03/11 08:30:46;;;;;;;;;;;;;;;1.22;86.21;98960.25;106185;1288;74898;-74
2023/03/11 08:33:32;;;;;;;;;;;;;;;1.27;86.26;98970.73;106086;1287;67479;-75
2023/03/11 08:36:19;;;;;;;;;;;;;;;1.28;86.10;98977.02;106213;1287;71409;-75
2023/03/11 08:39:05;;;;;;;;;;;;;;;1.29;86.10;98988.39;106077;1288;58913;-75
2023/03/11 08:41:50;;;;;;;;;;;;;;;1.34;86.24;98997.54;106046;1293;59459;-74
2023/03/11 08:44:36;;;;;;;;;;;;;;;1.46;86.23;99001.04;106274;1287;74698;-75
2023/03/11 08:47:23;;;;;;;;;;;;;;;1.50;86.06;99010.52;106268;1286;68575;-74
2023/03/11 08:50:14;;;;;;;;;;;;;;;1.46;85.81;99021.75;106292;1287;71235;-73
2023/03/11 08:53:02;;;;;;;;;;;;;;;1.39;85.87;99030.11;106061;1288;59002;-72
2023/03/11 08:55:48;;;;;;;;;;;;;;;1.37;86.01;99038.60;106200;1290;59124;-75
2023/03/11 08:58:34;;;;;;;;;;;;;;;1.36;86.00;99045.39;106209;1287;74577;-74
2023/03/11 09:01:21;;;;;;;;;;;;;;;1.36;86.00;99052.35;106208;1288;67218;-74
2023/03/11 09:04:07;;;;;;;;;;;;;;;1.37;85.99;99061.18;106236;1287;71366;-73
2023/03/11 09:06:53;;;;;;;;;;;;;;;1.39;86.01;99071.52;105242;1290;59565;-73
2023/03/11 09:09:39;;;;;;;;;;;;;;;1.39;86.01;99085.96;105210;1287;60466;-73
2023/03/11 09:12:25;;;;;;;;;;;;;;;1.43;86.10;99092.73;105171;1288;73001;-73
2023/03/11 09:15:11;;;;;;;;;;;;;;;1.40;85.90;99101.58;105166;1288;67227;-73
2023/03/11 09:17:58;;;;;;;;;;;;;;;1.40;85.91;99110.23;105146;1288;71257;-73
2023/03/11 09:20:44;;;;;;;;;;;;;;;1.36;85.94;99110.76;105240;1290;61229;-73
2023/03/11 09:23:30;;;;;;;;;;;;;;;1.36;86.13;99117.71;105257;1287;59788;-73
2023/03/11 09:26:16;;;;;;;;;;;;;;;1.41;86.22;99123.81;105053;1287;73384;-73
2023/03/11 09:29:02;;;;;;;;;;;;;;;1.48;86.13;99133.80;105049;1287;67102;-73
2023/03/11 09:31:48;;;;;;;;;;;;;;;1.53;86.06;99135.48;105187;1287;71304;-73
2023/03/11 09:34:34;;;;;;;;;;;;;;;1.56;86.07;99141.40;105154;1288;61162;-73
2023/03/11 09:37:20;;;;;;;;;;;;;;;1.56;86.05;99145.98;105208;1288;62796;-73
2023/03/11 09:40:07;;;;;;;;;;;;;;;1.51;85.92;99145.17;105243;1288;73337;-73
2023/03/11 09:42:53;;;;;;;;;;;;;;;1.48;85.97;99155.71;105080;1293;69889;-73
2023/03/11 09:45:44;;;;;;;;;;;;;;;1.46;86.02;99164.38;105190;1288;72174;-73
2023/03/11 09:48:43;;;;;;;;;;;;;;;1.45;86.10;99163.70;105223;1288;59522;-73
2023/03/11 09:51:36;;;;;;;;;;;;;;;1.49;86.06;99172.68;105081;1288;61045;-72
2023/03/11 09:54:23;;;;;;;;;;;;;;;1.49;86.00;99178.64;105083;1288;75077;-73
2023/03/11 09:57:12;;;;;;;;;;;;;;;1.47;85.84;99184.07;105141;1288;69072;-73
2023/03/11 10:00:00;;;;;;;;;;;;;;;1.42;85.69;99189.68;104984;1288;72158;-73
2023/03/11 10:02:47;;;;;;;;;;;;;;;1.37;85.74;99193.77;105049;1288;59143;-73
2023/03/11 10:05:33;;;;;;;;;;;;;;;1.37;85.87;99193.09;105208;1287;61127;-73
2023/03/11 10:08:26;;;;;;;;;;;;;;;1.42;86.02;99195.80;105206;1287;74400;-73
2023/03/11 10:11:28;;;;;;;;;;;;;;;1.51;86.19;99206.30;105231;1291;68105;-74
2023/03/11 10:14:33;;;;;;;;;;;;;;;1.57;86.13;99211.02;105178;1287;71175;-74
2023/03/11 10:17:19;;;;;;;;;;;;;;;1.68;86.17;99212.85;105013;1290;63509;-74
2023/03/11 10:20:05;;;;;;;;;;;;;;;1.76;86.12;99218.79;105173;1288;61181;-74
2023/03/11 10:23:01;;;;;;;;;;;;;;;1.77;86.02;99224.90;105182;1288;73319;-74
2023/03/11 10:26:06;;;;;;;;;;;;;;;1.76;86.02;99231.35;105154;1288;68026;-73
2023/03/11 10:29:05;;;;;;;;;;;;;;;1.71;86.01;99240.36;105252;1287;71841;-74
2023/03/11 10:32:06;;;;;;;;;;;;;;;1.73;86.11;99244.77;105189;1288;59472;-74
2023/03/11 10:35:04;;;;;;;;;;;;;;;1.73;86.15;99253.61;105189;1287;59722;-74
2023/03/11 10:37:57;;;;;;;;;;;;;;;1.79;86.21;99254.62;105222;1289;74384;-74
2023/03/11 10:40:44;;;;;;;;;;;;;;;1.84;86.22;99260.55;105189;1290;67498;-74
2023/03/11 10:43:37;;;;;;;;;;;;;;;1.83;86.04;99262.94;105113;1287;71166;-73
2023/03/11 10:46:25;;;;;;;;;;;;;;;1.77;86.05;99276.20;105248;1287;59467;-74
2023/03/11 10:49:13;;;;;;;;;;;;;;;1.71;85.98;99282.32;105129;1287;61184;-73
2023/03/11 10:52:01;;;;;;;;;;;;;;;1.66;86.12;99287.42;105008;1288;73751;-73
2023/03/11 10:54:57;;;;;;;;;;;;;;;1.66;86.18;99294.39;105190;1287;67339;-73
2023/03/11 10:57:46;;;;;;;;;;;;;;;1.73;86.27;99298.11;105140;1288;71474;-75
2023/03/11 11:00:32;;;;;;;;;;;;;;;1.80;86.23;99296.24;105012;1287;61140;-75
2023/03/11 11:03:20;;;;;;;;;;;;;;;1.87;86.34;99298.44;105102;1287;61259;-75
2023/03/11 11:06:17;;;;;;;;;;;;;;;1.96;86.26;99306.73;104971;1288;74495;-75
2023/03/11 11:09:18;;;;;;;;;;;;;;;2.00;86.22;99316.75;105200;1290;69008;-75
2023/03/11 11:12:05;;;;;;;;;;;;;;;2.07;86.22;99321.50;105205;1287;71875;-77
2023/03/11 11:14:52;;;;;;;;;;;;;;;2.09;86.08;99328.09;105110;1287;61209;-78
2023/03/11 11:17:39;;;;;;;;;;;;;;;2.09;86.06;99328.27;105051;1287;60209;-74
2023/03/11 11:20:26;;;;;;;;;;;;;;;2.10;86.09;99336.42;105211;1288;73166;-73
2023/03/11 11:23:24;;;;;;;;;;;;;;;2.13;86.26;99336.42;105075;1288;67275;-75
2023/03/11 11:26:28;;;;;;;;;;;;;;;2.06;86.09;99343.77;105097;1287;72144;-74
2023/03/11 11:29:14;;;;;;;;;;;;;;;2.00;86.17;99355.00;105018;1288;61149;-74
2023/03/11 11:32:23;;;;;;;;;;;;;;;1.94;86.08;99359.94;105179;1287;61313;-75
2023/03/11 11:35:13;;;;;;;;;;;;;;;1.82;86.04;99368.10;105186;1290;73299;-74
2023/03/11 11:38:01;;;;;;;;;;;;;;;1.75;86.15;99377.79;105214;1288;67125;-75
2023/03/11 11:40:47;;;;;;;;;;;;;;;1.69;86.22;99381.19;105055;1288;71299;-74
2023/03/11 11:43:33;;;;;;;;;;;;;;;1.67;86.19;99389.17;105300;1288;60205;-74
2023/03/11 11:46:39;;;;;;;;;;;;;;;1.63;86.13;99392.39;105181;1287;62684;-77
2023/03/11 11:49:31;;;;;;;;;;;;;;;1.64;86.20;99399.02;105175;1287;75937;-75
2023/03/11 11:52:19;;;;;;;;;;;;;;;1.65;86.12;99398.17;105213;1287;67230;-74
2023/03/11 11:55:20;;;;;;;;;;;;;;;1.68;86.22;99407.52;105066;1289;73829;-75
2023/03/11 11:58:09;;;;;;;;;;;;;;;1.74;86.23;99410.41;105215;1287;60021;-76
2023/03/11 12:01:02;;;;;;;;;;;;;;;1.79;86.26;99418.23;105248;1288;61117;-76
2023/03/11 12:03:49;;;;;;;;;;;;;;;1.80;86.04;99420.44;105247;1288;73327;-75
2023/03/11 12:06:36;;;;;;;;;;;;;;;1.80;85.91;99430.11;105182;1288;70158;-75
2023/03/11 12:09:25;;;;;;;;;;;;;;;1.78;85.75;99432.50;105210;1288;71192;-75
2023/03/11 12:12:30;;;;;;;;;;;;;;;1.80;85.89;99438.95;105228;1287;61202;-74
2023/03/11 12:15:23;;;;;;;;;;;;;;;1.91;86.12;99441.33;105253;1290;62823;-74
2023/03/11 12:18:14;;;;;;;;;;;;;;;2.05;86.07;99437.09;105114;1287;73328;-75
2023/03/11 12:21:05;;;;;;;;;;;;;;;2.13;85.95;99444.19;105148;1290;67367;-75
2023/03/11 12:23:51;;;;;;;;;;;;;;;2.18;85.96;99447.07;105027;1288;76173;-75
2023/03/11 12:26:39;;;;;;;;;;;;;;;2.20;85.86;99450.81;105182;1287;61207;-76
2023/03/11 12:29:29;;;;;;;;;;;;;;;2.17;85.86;99456.93;105259;1287;61246;-75
2023/03/11 12:32:36;;;;;;;;;;;;;;;2.19;85.88;99452.34;105217;1287;73088;-75
2023/03/11 12:35:26;;;;;;;;;;;;;;;2.14;85.69;99458.98;105221;1288;68544;-76
2023/03/11 12:38:17;;;;;;;;;;;;;;;2.12;85.74;99469.69;105183;1290;74037;-75
2023/03/11 12:41:03;;;;;;;;;;;;;;;2.08;85.64;99465.11;105185;1290;59034;-75
2023/03/11 12:43:49;;;;;;;;;;;;;;;2.00;85.52;99471.92;105223;1287;59178;-75
2023/03/11 12:46:54;;;;;;;;;;;;;;;1.93;85.53;99477.02;105186;1288;75037;-75
2023/03/11 12:49:47;;;;;;;;;;;;;;;1.97;85.74;99483.31;105254;1290;67181;-74
2023/03/11 12:52:50;;;;;;;;;;;;;;;2.07;85.84;99489.08;105122;1288;70979;-75
2023/03/11 12:55:37;;;;;;;;;;;;;;;2.16;85.92;99493.48;105168;1288;61274;-75
2023/03/11 12:58:39;;;;;;;;;;;;;;;2.20;85.87;99496.89;105045;1288;62285;-75
2023/03/11 13:01:28;;;;;;;;;;;;;;;2.29;85.89;99495.70;105218;1287;75933;-75
2023/03/11 13:04:26;;;;;;;;;;;;;;;2.29;85.57;99501.80;105205;1290;69902;-73
2023/03/11 13:07:21;;;;;;;;;;;;;;;2.26;85.48;99508.28;105169;1287;71065;-73
2023/03/11 13:10:19;;;;;;;;;;;;;;;2.28;85.60;99516.10;105115;1290;61208;-73
2023/03/11 13:13:22;;;;;;;;;;;;;;;2.32;85.57;99526.82;106194;1287;60475;-74
2023/03/11 13:16:13;;;;;;;;;;;;;;;2.32;85.45;99536.84;106198;1287;74556;-73
2023/03/11 13:19:19;;;;;;;;;;;;;;;2.29;85.44;99542.61;106189;1287;66738;-73
2023/03/11 13:22:25;;;;;;;;;;;;;;;2.26;85.44;99550.11;106228;1288;71360;-74
2023/03/11 13:25:30;;;;;;;;;;;;;;;2.29;85.46;99549.77;106305;1287;58964;-74
2023/03/11 13:28:42;;;;;;;;;;;;;;;2.36;85.59;99555.37;106309;1287;58436;-74
2023/03/11 13:31:31;;;;;;;;;;;;;;;2.46;85.63;99555.55;105372;1288;75189;-73
2023/03/11 13:34:33;;;;;;;;;;;;;;;2.49;85.35;99563.71;105001;1288;67328;-73
2023/03/11 13:37:19;;;;;;;;;;;;;;;2.51;85.36;99565.76;105182;1286;71927;-73
2023/03/11 13:40:24;;;;;;;;;;;;;;;2.54;85.24;99568.81;105076;1288;61037;-73
2023/03/11 13:43:23;;;;;;;;;;;;;;;2.52;85.29;99579.19;105189;1288;61095;-73
2023/03/11 13:46:18;;;;;;;;;;;;;;;2.54;85.31;99582.08;105090;1288;75869;-73
2023/03/11 13:49:22;;;;;;;;;;;;;;;2.53;85.09;99595.69;104918;1286;68443;-73
2023/03/11 13:52:13;;;;;;;;;;;;;;;2.50;85.21;99597.56;105102;1288;72504;-73
2023/03/11 13:55:07;;;;;;;;;;;;;;;2.45;85.16;99607.25;105125;1288;61329;-73
2023/03/11 13:57:55;;;;;;;;;;;;;;;2.42;85.23;99606.91;105139;1287;59752;-73
2023/03/11 14:00:52;;;;;;;;;;;;;;;2.38;85.05;99612.17;105022;1291;73865;-73
2023/03/11 14:03:42;;;;;;;;;;;;;;;2.34;85.17;99615.41;105121;1288;67274;-73
2023/03/11 14:06:29;;;;;;;;;;;;;;;2.37;85.21;99618.80;105088;1293;71750;-73
2023/03/11 14:09:19;;;;;;;;;;;;;;;2.39;85.13;99625.95;105014;1288;61105;-72
2023/03/11 14:12:08;;;;;;;;;;;;;;;2.38;85.11;99634.30;105111;1289;61073;-72
2023/03/11 14:14:57;;;;;;;;;;;;;;;2.32;84.91;99640.06;105082;1288;73654;-72
2023/03/11 14:17:43;;;;;;;;;;;;;;;2.25;84.85;99647.52;105012;1288;68830;-72
2023/03/11 14:20:30;;;;;;;;;;;;;;;2.20;84.90;99656.36;105018;1288;73053;-73
2023/03/11 14:23:18;;;;;;;;;;;;;;;2.20;84.93;99653.98;105069;1290;59966;-72
2023/03/11 14:26:06;;;;;;;;;;;;;;;2.22;84.90;99664.18;105045;1288;65021;-73
2023/03/11 14:28:53;;;;;;;;;;;;;;;2.25;84.91;99668.61;105044;1292;73359;-72
2023/03/11 14:31:42;;;;;;;;;;;;;;;2.28;85.01;99672.53;105063;1288;67199;-73
2023/03/11 14:34:30;;;;;;;;;;;;;;;2.30;84.86;99675.43;104918;1288;71265;-73
2023/03/11 14:37:36;;;;;;;;;;;;;;;2.32;84.82;99680.70;105105;1288;61145;-74
2023/03/11 14:40:30;;;;;;;;;;;;;;;2.31;84.68;99687.84;104935;1288;61706;-74